Kuala Lumpur, Malaysia

2:51 PM MYT on July 29, 2015 (GMT +0800)
Kuala Lumpur International -Sepang | | Change Station
CLOSE
Current Station
Airport
Location: Kuala Lumpur,
Elevation: 69 ft
Nearby Weather Stations

Elev 69 ft 2.75 °N, 101.71 °E | Updated 21 minutes ago

Mostly Cloudy
Mostly Cloudy
91 °F
Feels Like 102 °F
N
9
Wind Variable Wind from SSW

Today
High -- | Low -- °F
--% Chance of Precip.
Yesterday
High -- | Low -- °F
Precip. -- in
7:12 AM 7:28 PM
Waxing Gibbous, 94% visible
Pressure 29.80 in
Visibility 6.2 miles
Clouds Few 1700 ft
Scattered Clouds 2000 ft
Mostly Cloudy 28000 ft
Heat Index 102 °F
Dew Point 75 °F
Humidity 59%
Rainfall 0.00 in
Snow Depth Not available.
UV 8 out of 12
Pollen Not available.
Air Quality Not available.
Flu Activity Not available.
METAR WMKK 290630Z 20008KT 140V250 9999 FEW017CB SCT020 BKN280 33/24 Q1009 NOSIG

More Conditions Fewer Conditions

Pressure 29.80 in
Visibility 6.2 miles
Clouds Few 1700 ft
Scattered Clouds 2000 ft
Mostly Cloudy 28000 ft
Heat Index 102 °F
Dew Point 75 °F
Humidity 59%
Rainfall 0.00 in
Snow Depth Not available.
UV 8 out of 12
Pollen Not available.
Air Quality Not available.
Flu Activity Not available.
METAR WMKK 290630Z 20008KT 140V250 9999 FEW017CB SCT020 BKN280 33/24 Q1009 NOSIG

More Conditions Fewer Conditions

10-Day Weather Forecast

×

Almanac

Astronomy

Jul. 29, 2015 Rise Set
Actual Time
Civil Twilight
Nautical Twilight
Astronomical Twilight
Moon
Length of Visible Light
Length of Day
Tomorrow will be .
, % of the Moon is Illuminated

Today's Extremes

Country Highs Country Lows

Community

WunderPhotos

Upload Photos

1,842,061 photos uploaded!

WunderBlogs® & News

Nearby

Air Quality

  Air Quality AQ Index Pollutant
Not available.

Snow Depth

Station Depth Elevation

Earthquake Activity

City Distance Mag. Time & Date
Minimum magnitude displayed is 2.5.

Coastal Water Temperatures

Place Temperature

Stations

Nearby Weather Stations

Station Location Temp. Windchill Dew Point Humidity Wind Precip. Elev Updated Type